sensor_id;sensor_type;location;lat;lon;timestamp;P1;durP1;ratioP1;P2;durP2;ratioP2
23730;SDS011;12046;44.702;10.622;2022-09-13T00:01:47;2.33;;;1.27;;
23730;SDS011;12046;44.702;10.622;2022-09-13T00:04:13;1.63;;;1.20;;
23730;SDS011;12046;44.702;10.622;2022-09-13T00:06:39;2.10;;;1.17;;
23730;SDS011;12046;44.702;10.622;2022-09-13T00:09:05;2.45;;;1.10;;
23730;SDS011;12046;44.702;10.622;2022-09-13T00:11:31;2.90;;;1.23;;
23730;SDS011;12046;44.702;10.622;2022-09-13T00:13:57;2.60;;;1.20;;
23730;SDS011;12046;44.702;10.622;2022-09-13T00:16:25;3.67;;;1.00;;
23730;SDS011;12046;44.702;10.622;2022-09-13T00:18:53;1.60;;;1.08;;
23730;SDS011;12046;44.702;10.622;2022-09-13T00:21:21;2.35;;;1.00;;
23730;SDS011;12046;44.702;10.622;2022-09-13T00:23:48;3.17;;;1.38;;
23730;SDS011;12046;44.702;10.622;2022-09-13T00:26:20;4.28;;;1.58;;
23730;SDS011;12046;44.702;10.622;2022-09-13T00:28:51;3.17;;;1.10;;
23730;SDS011;12046;44.702;10.622;2022-09-13T00:31:18;4.40;;;1.40;;
23730;SDS011;12046;44.702;10.622;2022-09-13T00:33:45;1.55;;;1.30;;
23730;SDS011;12046;44.702;10.622;2022-09-13T00:36:11;1.35;;;1.08;;
23730;SDS011;12046;44.702;10.622;2022-09-13T00:38:39;3.50;;;1.15;;
23730;SDS011;12046;44.702;10.622;2022-09-13T00:41:07;3.95;;;1.08;;
23730;SDS011;12046;44.702;10.622;2022-09-13T00:46:16;3.28;;;1.20;;
23730;SDS011;12046;44.702;10.622;2022-09-13T00:48:43;2.03;;;1.35;;
23730;SDS011;12046;44.702;10.622;2022-09-13T00:51:11;3.33;;;1.10;;
23730;SDS011;12046;44.702;10.622;2022-09-13T00:53:38;2.35;;;1.15;;
23730;SDS011;12046;44.702;10.622;2022-09-13T00:56:16;0.90;;;0.90;;
23730;SDS011;12046;44.702;10.622;2022-09-13T00:58:49;2.60;;;1.02;;
23730;SDS011;12046;44.702;10.622;2022-09-13T01:01:18;1.02;;;0.90;;
23730;SDS011;12046;44.702;10.622;2022-09-13T01:03:47;1.00;;;0.90;;
23730;SDS011;12046;44.702;10.622;2022-09-13T01:06:21;1.42;;;0.82;;
23730;SDS011;12046;44.702;10.622;2022-09-13T01:08:53;1.23;;;0.90;;
23730;SDS011;12046;44.702;10.622;2022-09-13T01:13:58;2.33;;;1.23;;
23730;SDS011;12046;44.702;10.622;2022-09-13T01:16:24;2.95;;;0.93;;
23730;SDS011;12046;44.702;10.622;2022-09-13T01:18:51;1.30;;;1.00;;
23730;SDS011;12046;44.702;10.622;2022-09-13T01:24:15;1.13;;;0.98;;
23730;SDS011;12046;44.702;10.622;2022-09-13T01:44:28;3.67;;;1.20;;
23730;SDS011;12046;44.702;10.622;2022-09-13T01:55:25;6.28;;;3.90;;
23730;SDS011;12046;44.702;10.622;2022-09-13T01:58:26;13.05;;;5.35;;
23730;SDS011;12046;44.702;10.622;2022-09-13T02:01:09;8.95;;;5.03;;
23730;SDS011;12046;44.702;10.622;2022-09-13T02:06:39;9.18;;;5.75;;
23730;SDS011;12046;44.702;10.622;2022-09-13T02:09:34;9.52;;;5.85;;
23730;SDS011;12046;44.702;10.622;2022-09-13T02:12:13;6.53;;;4.95;;
23730;SDS011;12046;44.702;10.622;2022-09-13T02:15:31;7.45;;;5.15;;
23730;SDS011;12046;44.702;10.622;2022-09-13T02:17:43;6.28;;;5.25;;
23730;SDS011;12046;44.702;10.622;2022-09-13T02:20:32;6.03;;;5.43;;
23730;SDS011;12046;44.702;10.622;2022-09-13T02:23:01;7.35;;;5.40;;
23730;SDS011;12046;44.702;10.622;2022-09-13T02:25:33;7.85;;;4.78;;
23730;SDS011;12046;44.702;10.622;2022-09-13T02:28:04;11.73;;;5.07;;
23730;SDS011;12046;44.702;10.622;2022-09-13T02:30:33;7.07;;;4.80;;
23730;SDS011;12046;44.702;10.622;2022-09-13T02:33:11;8.43;;;4.90;;
23730;SDS011;12046;44.702;10.622;2022-09-13T02:35:44;5.38;;;4.30;;
23730;SDS011;12046;44.702;10.622;2022-09-13T02:38:30;6.93;;;4.75;;
23730;SDS011;12046;44.702;10.622;2022-09-13T02:41:08;8.25;;;4.90;;
23730;SDS011;12046;44.702;10.622;2022-09-13T02:43:40;8.43;;;4.40;;
23730;SDS011;12046;44.702;10.622;2022-09-13T02:46:21;4.90;;;4.20;;
23730;SDS011;12046;44.702;10.622;2022-09-13T02:48:58;8.63;;;4.65;;
23730;SDS011;12046;44.702;10.622;2022-09-13T02:52:06;4.93;;;3.80;;
23730;SDS011;12046;44.702;10.622;2022-09-13T02:54:56;7.93;;;4.38;;
23730;SDS011;12046;44.702;10.622;2022-09-13T03:00:26;6.43;;;4.65;;
23730;SDS011;12046;44.702;10.622;2022-09-13T03:02:53;6.13;;;4.22;;
23730;SDS011;12046;44.702;10.622;2022-09-13T03:05:22;5.28;;;4.28;;
23730;SDS011;12046;44.702;10.622;2022-09-13T03:07:48;8.98;;;4.35;;
23730;SDS011;12046;44.702;10.622;2022-09-13T03:10:15;7.03;;;4.13;;
23730;SDS011;12046;44.702;10.622;2022-09-13T03:23:21;7.32;;;4.18;;
23730;SDS011;12046;44.702;10.622;2022-09-13T03:26:03;4.22;;;3.78;;
23730;SDS011;12046;44.702;10.622;2022-09-13T03:31:14;4.95;;;4.40;;
23730;SDS011;12046;44.702;10.622;2022-09-13T03:34:06;6.10;;;4.38;;
23730;SDS011;12046;44.702;10.622;2022-09-13T03:42:13;6.38;;;4.35;;
23730;SDS011;12046;44.702;10.622;2022-09-13T03:44:47;5.95;;;4.00;;
23730;SDS011;12046;44.702;10.622;2022-09-13T03:47:16;4.88;;;4.10;;
23730;SDS011;12046;44.702;10.622;2022-09-13T03:49:46;6.80;;;4.50;;
23730;SDS011;12046;44.702;10.622;2022-09-13T03:52:17;6.07;;;4.10;;
23730;SDS011;12046;44.702;10.622;2022-09-13T03:54:51;8.65;;;4.55;;
23730;SDS011;12046;44.702;10.622;2022-09-13T03:57:19;5.72;;;4.32;;
23730;SDS011;12046;44.702;10.622;2022-09-13T03:59:47;9.13;;;4.40;;
23730;SDS011;12046;44.702;10.622;2022-09-13T04:02:16;6.93;;;4.35;;
23730;SDS011;12046;44.702;10.622;2022-09-13T04:05:07;5.90;;;4.38;;
23730;SDS011;12046;44.702;10.622;2022-09-13T04:07:38;5.15;;;4.30;;
23730;SDS011;12046;44.702;10.622;2022-09-13T04:10:09;3.78;;;3.10;;
23730;SDS011;12046;44.702;10.622;2022-09-13T04:12:36;5.05;;;3.65;;
23730;SDS011;12046;44.702;10.622;2022-09-13T04:15:08;3.95;;;3.13;;
23730;SDS011;12046;44.702;10.622;2022-09-13T04:17:43;6.63;;;3.45;;
23730;SDS011;12046;44.702;10.622;2022-09-13T04:20:19;6.70;;;3.10;;
23730;SDS011;12046;44.702;10.622;2022-09-13T04:23:05;7.07;;;3.83;;
23730;SDS011;12046;44.702;10.622;2022-09-13T04:25:31;4.30;;;3.50;;
23730;SDS011;12046;44.702;10.622;2022-09-13T04:28:10;5.55;;;3.65;;
23730;SDS011;12046;44.702;10.622;2022-09-13T04:30:42;6.28;;;3.80;;
23730;SDS011;12046;44.702;10.622;2022-09-13T04:33:14;6.20;;;3.47;;
23730;SDS011;12046;44.702;10.622;2022-09-13T04:35:41;6.65;;;4.05;;
23730;SDS011;12046;44.702;10.622;2022-09-13T04:38:08;7.50;;;4.85;;
23730;SDS011;12046;44.702;10.622;2022-09-13T04:40:34;5.40;;;4.35;;
23730;SDS011;12046;44.702;10.622;2022-09-13T04:43:01;9.73;;;4.35;;
23730;SDS011;12046;44.702;10.622;2022-09-13T04:45:28;5.03;;;3.83;;
23730;SDS011;12046;44.702;10.622;2022-09-13T04:47:54;7.60;;;3.88;;
23730;SDS011;12046;44.702;10.622;2022-09-13T04:50:24;5.93;;;3.33;;
23730;SDS011;12046;44.702;10.622;2022-09-13T04:52:50;7.00;;;3.38;;
23730;SDS011;12046;44.702;10.622;2022-09-13T04:55:19;6.85;;;3.15;;
23730;SDS011;12046;44.702;10.622;2022-09-13T04:57:45;6.70;;;3.30;;
23730;SDS011;12046;44.702;10.622;2022-09-13T05:00:11;7.47;;;3.35;;
23730;SDS011;12046;44.702;10.622;2022-09-13T05:02:37;5.38;;;2.88;;
23730;SDS011;12046;44.702;10.622;2022-09-13T05:05:04;5.22;;;3.00;;
23730;SDS011;12046;44.702;10.622;2022-09-13T05:07:30;5.68;;;3.10;;
23730;SDS011;12046;44.702;10.622;2022-09-13T05:09:56;7.55;;;3.05;;
23730;SDS011;12046;44.702;10.622;2022-09-13T05:12:22;3.80;;;3.22;;
23730;SDS011;12046;44.702;10.622;2022-09-13T05:14:47;3.55;;;2.90;;
23730;SDS011;12046;44.702;10.622;2022-09-13T05:17:13;3.55;;;2.70;;
23730;SDS011;12046;44.702;10.622;2022-09-13T05:19:39;6.78;;;3.22;;
23730;SDS011;12046;44.702;10.622;2022-09-13T05:22:05;4.57;;;2.88;;
23730;SDS011;12046;44.702;10.622;2022-09-13T05:24:31;3.60;;;2.75;;
23730;SDS011;12046;44.702;10.622;2022-09-13T05:26:57;3.60;;;2.78;;
23730;SDS011;12046;44.702;10.622;2022-09-13T05:29:24;3.35;;;2.70;;
23730;SDS011;12046;44.702;10.622;2022-09-13T05:31:50;3.38;;;2.65;;
23730;SDS011;12046;44.702;10.622;2022-09-13T05:34:16;4.80;;;2.80;;
23730;SDS011;12046;44.702;10.622;2022-09-13T05:36:43;4.85;;;2.50;;
23730;SDS011;12046;44.702;10.622;2022-09-13T05:39:11;6.00;;;2.70;;
23730;SDS011;12046;44.702;10.622;2022-09-13T05:41:38;10.63;;;2.90;;
23730;SDS011;12046;44.702;10.622;2022-09-13T05:44:05;3.63;;;2.10;;
23730;SDS011;12046;44.702;10.622;2022-09-13T05:46:32;4.03;;;2.65;;
23730;SDS011;12046;44.702;10.622;2022-09-13T05:48:58;2.83;;;2.10;;
23730;SDS011;12046;44.702;10.622;2022-09-13T05:51:24;2.53;;;2.17;;
23730;SDS011;12046;44.702;10.622;2022-09-13T05:53:51;5.90;;;2.30;;
23730;SDS011;12046;44.702;10.622;2022-09-13T05:56:23;4.85;;;2.25;;
23730;SDS011;12046;44.702;10.622;2022-09-13T05:58:51;5.68;;;2.25;;
23730;SDS011;12046;44.702;10.622;2022-09-13T06:01:19;5.13;;;2.28;;
23730;SDS011;12046;44.702;10.622;2022-09-13T06:03:47;3.33;;;2.03;;
23730;SDS011;12046;44.702;10.622;2022-09-13T06:06:14;3.92;;;1.83;;
23730;SDS011;12046;44.702;10.622;2022-09-13T06:08:41;3.88;;;2.08;;
23730;SDS011;12046;44.702;10.622;2022-09-13T06:11:09;2.45;;;2.17;;
23730;SDS011;12046;44.702;10.622;2022-09-13T06:13:37;3.65;;;2.10;;
23730;SDS011;12046;44.702;10.622;2022-09-13T06:16:05;3.10;;;1.92;;
23730;SDS011;12046;44.702;10.622;2022-09-13T06:18:32;2.22;;;1.60;;
23730;SDS011;12046;44.702;10.622;2022-09-13T06:21:00;4.95;;;2.10;;
23730;SDS011;12046;44.702;10.622;2022-09-13T06:23:30;2.90;;;2.00;;
23730;SDS011;12046;44.702;10.622;2022-09-13T06:26:03;5.78;;;2.40;;
23730;SDS011;12046;44.702;10.622;2022-09-13T06:28:30;5.43;;;2.10;;
23730;SDS011;12046;44.702;10.622;2022-09-13T06:30:59;5.65;;;2.22;;
23730;SDS011;12046;44.702;10.622;2022-09-13T06:33:32;5.57;;;1.90;;
23730;SDS011;12046;44.702;10.622;2022-09-13T06:35:59;5.43;;;1.88;;
23730;SDS011;12046;44.702;10.622;2022-09-13T06:38:32;2.90;;;1.80;;
23730;SDS011;12046;44.702;10.622;2022-09-13T06:41:08;7.80;;;2.45;;
23730;SDS011;12046;44.702;10.622;2022-09-13T06:43:36;2.70;;;2.22;;
23730;SDS011;12046;44.702;10.622;2022-09-13T06:46:04;3.38;;;2.00;;
23730;SDS011;12046;44.702;10.622;2022-09-13T06:48:33;5.38;;;1.98;;
23730;SDS011;12046;44.702;10.622;2022-09-13T06:51:01;5.10;;;1.90;;
23730;SDS011;12046;44.702;10.622;2022-09-13T06:53:30;5.50;;;2.55;;
23730;SDS011;12046;44.702;10.622;2022-09-13T06:55:59;2.88;;;2.13;;
23730;SDS011;12046;44.702;10.622;2022-09-13T06:58:27;4.05;;;2.40;;
23730;SDS011;12046;44.702;10.622;2022-09-13T07:01:03;2.15;;;1.95;;
23730;SDS011;12046;44.702;10.622;2022-09-13T07:03:36;2.70;;;1.90;;
23730;SDS011;12046;44.702;10.622;2022-09-13T07:06:06;2.72;;;1.60;;
23730;SDS011;12046;44.702;10.622;2022-09-13T07:08:45;5.78;;;1.65;;
23730;SDS011;12046;44.702;10.622;2022-09-13T07:11:20;4.15;;;1.75;;
23730;SDS011;12046;44.702;10.622;2022-09-13T07:13:49;5.53;;;1.65;;
23730;SDS011;12046;44.702;10.622;2022-09-13T07:16:16;2.95;;;2.03;;
23730;SDS011;12046;44.702;10.622;2022-09-13T07:18:43;4.47;;;1.65;;
23730;SDS011;12046;44.702;10.622;2022-09-13T07:21:10;2.22;;;1.30;;
23730;SDS011;12046;44.702;10.622;2022-09-13T07:23:38;2.42;;;1.10;;
23730;SDS011;12046;44.702;10.622;2022-09-13T07:26:05;1.98;;;1.08;;
23730;SDS011;12046;44.702;10.622;2022-09-13T07:28:37;2.13;;;1.45;;
23730;SDS011;12046;44.702;10.622;2022-09-13T07:31:09;2.47;;;1.17;;
23730;SDS011;12046;44.702;10.622;2022-09-13T07:33:37;4.13;;;1.15;;
23730;SDS011;12046;44.702;10.622;2022-09-13T07:36:04;2.75;;;1.17;;
23730;SDS011;12046;44.702;10.622;2022-09-13T07:38:34;1.90;;;1.30;;
23730;SDS011;12046;44.702;10.622;2022-09-13T07:41:02;2.25;;;1.60;;
23730;SDS011;12046;44.702;10.622;2022-09-13T07:43:33;2.22;;;1.52;;
23730;SDS011;12046;44.702;10.622;2022-09-13T07:48:29;3.20;;;1.85;;
23730;SDS011;12046;44.702;10.622;2022-09-13T07:51:02;2.78;;;1.45;;
23730;SDS011;12046;44.702;10.622;2022-09-13T07:53:29;2.90;;;1.65;;
23730;SDS011;12046;44.702;10.622;2022-09-13T07:55:59;5.13;;;2.08;;
23730;SDS011;12046;44.702;10.622;2022-09-13T07:58:36;2.63;;;2.00;;
23730;SDS011;12046;44.702;10.622;2022-09-13T08:01:07;2.40;;;1.50;;
23730;SDS011;12046;44.702;10.622;2022-09-13T08:03:34;4.97;;;1.58;;
23730;SDS011;12046;44.702;10.622;2022-09-13T08:06:01;6.28;;;1.55;;
23730;SDS011;12046;44.702;10.622;2022-09-13T08:08:37;3.30;;;1.80;;
23730;SDS011;12046;44.702;10.622;2022-09-13T08:11:04;4.03;;;1.88;;
23730;SDS011;12046;44.702;10.622;2022-09-13T08:13:31;3.28;;;1.80;;
23730;SDS011;12046;44.702;10.622;2022-09-13T08:16:02;4.18;;;2.40;;
23730;SDS011;12046;44.702;10.622;2022-09-13T08:18:29;4.53;;;2.00;;
23730;SDS011;12046;44.702;10.622;2022-09-13T08:20:56;5.53;;;2.00;;
23730;SDS011;12046;44.702;10.622;2022-09-13T08:23:23;3.42;;;1.88;;
23730;SDS011;12046;44.702;10.622;2022-09-13T08:25:50;5.45;;;2.63;;
23730;SDS011;12046;44.702;10.622;2022-09-13T08:28:17;5.95;;;1.73;;
23730;SDS011;12046;44.702;10.622;2022-09-13T08:30:46;6.20;;;1.90;;
23730;SDS011;12046;44.702;10.622;2022-09-13T08:33:12;2.92;;;1.42;;
23730;SDS011;12046;44.702;10.622;2022-09-13T08:35:39;2.28;;;1.30;;
23730;SDS011;12046;44.702;10.622;2022-09-13T08:38:09;4.13;;;1.40;;
23730;SDS011;12046;44.702;10.622;2022-09-13T08:40:39;1.95;;;1.55;;
23730;SDS011;12046;44.702;10.622;2022-09-13T08:46:03;2.92;;;1.70;;
23730;SDS011;12046;44.702;10.622;2022-09-13T08:48:34;4.28;;;2.65;;
23730;SDS011;12046;44.702;10.622;2022-09-13T08:51:06;5.57;;;2.70;;
23730;SDS011;12046;44.702;10.622;2022-09-13T08:53:44;4.25;;;2.97;;
23730;SDS011;12046;44.702;10.622;2022-09-13T08:56:24;4.28;;;2.40;;
23730;SDS011;12046;44.702;10.622;2022-09-13T09:04:29;3.08;;;2.00;;
23730;SDS011;12046;44.702;10.622;2022-09-13T09:09:56;3.70;;;2.20;;
23730;SDS011;12046;44.702;10.622;2022-09-13T09:15:23;4.40;;;2.40;;
23730;SDS011;12046;44.702;10.622;2022-09-13T09:20:41;7.75;;;2.45;;
23730;SDS011;12046;44.702;10.622;2022-09-13T09:23:13;5.30;;;2.53;;
23730;SDS011;12046;44.702;10.622;2022-09-13T09:25:41;4.97;;;2.83;;
23730;SDS011;12046;44.702;10.622;2022-09-13T09:28:12;4.05;;;2.50;;
23730;SDS011;12046;44.702;10.622;2022-09-13T09:40:14;4.50;;;2.75;;
23730;SDS011;12046;44.702;10.622;2022-09-13T09:43:30;4.05;;;2.33;;
23730;SDS011;12046;44.702;10.622;2022-09-13T09:46:10;3.15;;;2.20;;
23730;SDS011;12046;44.702;10.622;2022-09-13T09:48:47;9.30;;;2.45;;
23730;SDS011;12046;44.702;10.622;2022-09-13T09:51:35;6.38;;;2.20;;
23730;SDS011;12046;44.702;10.622;2022-09-13T09:54:01;6.07;;;1.95;;
23730;SDS011;12046;44.702;10.622;2022-09-13T09:56:50;5.50;;;2.20;;
23730;SDS011;12046;44.702;10.622;2022-09-13T09:59:24;4.38;;;2.22;;
23730;SDS011;12046;44.702;10.622;2022-09-13T10:05:08;12.60;;;2.30;;
23730;SDS011;12046;44.702;10.622;2022-09-13T10:07:35;5.40;;;2.00;;
23730;SDS011;12046;44.702;10.622;2022-09-13T10:10:04;8.00;;;3.47;;
23730;SDS011;12046;44.702;10.622;2022-09-13T10:12:38;5.15;;;2.97;;
23730;SDS011;12046;44.702;10.622;2022-09-13T10:15:50;5.35;;;2.22;;
23730;SDS011;12046;44.702;10.622;2022-09-13T10:18:05;5.20;;;2.50;;
23730;SDS011;12046;44.702;10.622;2022-09-13T10:20:42;5.70;;;2.60;;
23730;SDS011;12046;44.702;10.622;2022-09-13T10:23:50;4.10;;;2.80;;
23730;SDS011;12046;44.702;10.622;2022-09-13T10:26:37;5.07;;;2.75;;
23730;SDS011;12046;44.702;10.622;2022-09-13T10:29:08;7.97;;;2.72;;
23730;SDS011;12046;44.702;10.622;2022-09-13T10:31:40;4.80;;;2.10;;
23730;SDS011;12046;44.702;10.622;2022-09-13T10:37:05;4.90;;;1.90;;
23730;SDS011;12046;44.702;10.622;2022-09-13T10:40:16;6.30;;;1.88;;
23730;SDS011;12046;44.702;10.622;2022-09-13T10:42:49;5.25;;;2.00;;
23730;SDS011;12046;44.702;10.622;2022-09-13T10:45:26;5.53;;;2.07;;
23730;SDS011;12046;44.702;10.622;2022-09-13T10:48:04;4.70;;;2.10;;
23730;SDS011;12046;44.702;10.622;2022-09-13T10:50:31;3.30;;;2.53;;
23730;SDS011;12046;44.702;10.622;2022-09-13T10:52:58;4.28;;;2.00;;
23730;SDS011;12046;44.702;10.622;2022-09-13T10:57:52;7.85;;;2.25;;
23730;SDS011;12046;44.702;10.622;2022-09-13T11:03:33;4.25;;;1.60;;
23730;SDS011;12046;44.702;10.622;2022-09-13T11:06:20;3.95;;;2.08;;
23730;SDS011;12046;44.702;10.622;2022-09-13T11:17:29;2.78;;;2.33;;
23730;SDS011;12046;44.702;10.622;2022-09-13T11:28:33;3.25;;;2.03;;
23730;SDS011;12046;44.702;10.622;2022-09-13T11:34:26;5.22;;;2.13;;
23730;SDS011;12046;44.702;10.622;2022-09-13T11:45:24;7.55;;;2.72;;
23730;SDS011;12046;44.702;10.622;2022-09-13T11:53:54;5.57;;;2.00;;
23730;SDS011;12046;44.702;10.622;2022-09-13T11:56:37;5.07;;;2.20;;
23730;SDS011;12046;44.702;10.622;2022-09-13T12:02:19;2.92;;;1.80;;
23730;SDS011;12046;44.702;10.622;2022-09-13T12:05:05;10.40;;;2.20;;
23730;SDS011;12046;44.702;10.622;2022-09-13T12:07:44;3.38;;;1.92;;
23730;SDS011;12046;44.702;10.622;2022-09-13T12:10:15;3.33;;;2.03;;
23730;SDS011;12046;44.702;10.622;2022-09-13T12:13:00;7.63;;;2.30;;
23730;SDS011;12046;44.702;10.622;2022-09-13T12:15:38;5.53;;;1.70;;
23730;SDS011;12046;44.702;10.622;2022-09-13T12:21:03;2.97;;;1.40;;
23730;SDS011;12046;44.702;10.622;2022-09-13T12:23:36;4.13;;;2.00;;
23730;SDS011;12046;44.702;10.622;2022-09-13T12:26:09;5.18;;;2.13;;
23730;SDS011;12046;44.702;10.622;2022-09-13T12:28:40;5.47;;;2.28;;
23730;SDS011;12046;44.702;10.622;2022-09-13T12:31:17;3.80;;;1.90;;
23730;SDS011;12046;44.702;10.622;2022-09-13T12:33:47;2.80;;;2.00;;
23730;SDS011;12046;44.702;10.622;2022-09-13T12:46:58;2.85;;;1.67;;
23730;SDS011;12046;44.702;10.622;2022-09-13T12:52:39;3.20;;;1.45;;
23730;SDS011;12046;44.702;10.622;2022-09-13T13:01:18;2.80;;;1.40;;
23730;SDS011;12046;44.702;10.622;2022-09-13T13:03:54;6.65;;;1.63;;
23730;SDS011;12046;44.702;10.622;2022-09-13T13:09:30;5.55;;;1.23;;
23730;SDS011;12046;44.702;10.622;2022-09-13T13:12:01;2.22;;;1.20;;
23730;SDS011;12046;44.702;10.622;2022-09-13T13:14:49;2.50;;;1.10;;
23730;SDS011;12046;44.702;10.622;2022-09-13T13:23:19;7.45;;;1.40;;
23730;SDS011;12046;44.702;10.622;2022-09-13T13:31:08;3.58;;;1.20;;
23730;SDS011;12046;44.702;10.622;2022-09-13T13:39:11;3.28;;;1.33;;
23730;SDS011;12046;44.702;10.622;2022-09-13T13:46:47;6.00;;;1.35;;
23730;SDS011;12046;44.702;10.622;2022-09-13T13:59:36;3.05;;;1.30;;
23730;SDS011;12046;44.702;10.622;2022-09-13T14:02:10;2.10;;;1.35;;
23730;SDS011;12046;44.702;10.622;2022-09-13T14:27:50;4.50;;;1.70;;
23730;SDS011;12046;44.702;10.622;2022-09-13T14:33:32;5.88;;;1.70;;
23730;SDS011;12046;44.702;10.622;2022-09-13T14:36:05;4.25;;;1.50;;
23730;SDS011;12046;44.702;10.622;2022-09-13T14:38:52;3.05;;;1.60;;
23730;SDS011;12046;44.702;10.622;2022-09-13T14:41:32;6.38;;;1.70;;
23730;SDS011;12046;44.702;10.622;2022-09-13T14:49:46;2.55;;;1.50;;
23730;SDS011;12046;44.702;10.622;2022-09-13T14:55:21;6.07;;;1.60;;
23730;SDS011;12046;44.702;10.622;2022-09-13T14:57:58;4.88;;;1.85;;
23730;SDS011;12046;44.702;10.622;2022-09-13T15:00:37;3.05;;;1.35;;
23730;SDS011;12046;44.702;10.622;2022-09-13T15:03:15;4.78;;;1.88;;
23730;SDS011;12046;44.702;10.622;2022-09-13T15:05:49;3.92;;;2.05;;
23730;SDS011;12046;44.702;10.622;2022-09-13T15:11:05;3.42;;;1.50;;
23730;SDS011;12046;44.702;10.622;2022-09-13T15:13:37;4.45;;;2.10;;
23730;SDS011;12046;44.702;10.622;2022-09-13T15:16:27;4.53;;;1.75;;
23730;SDS011;12046;44.702;10.622;2022-09-13T15:19:16;4.57;;;1.50;;
23730;SDS011;12046;44.702;10.622;2022-09-13T15:22:28;3.90;;;1.83;;
23730;SDS011;12046;44.702;10.622;2022-09-13T15:24:58;4.85;;;1.70;;
23730;SDS011;12046;44.702;10.622;2022-09-13T15:27:30;3.90;;;1.52;;
23730;SDS011;12046;44.702;10.622;2022-09-13T15:35:52;4.90;;;1.60;;
23730;SDS011;12046;44.702;10.622;2022-09-13T15:41:31;7.95;;;1.67;;
23730;SDS011;12046;44.702;10.622;2022-09-13T15:44:03;2.90;;;1.70;;
23730;SDS011;12046;44.702;10.622;2022-09-13T15:46:36;2.70;;;1.80;;
23730;SDS011;12046;44.702;10.622;2022-09-13T15:49:25;3.53;;;1.30;;
23730;SDS011;12046;44.702;10.622;2022-09-13T15:52:02;1.95;;;1.42;;
23730;SDS011;12046;44.702;10.622;2022-09-13T15:54:34;3.53;;;1.75;;
23730;SDS011;12046;44.702;10.622;2022-09-13T15:57:06;4.57;;;1.80;;
23730;SDS011;12046;44.702;10.622;2022-09-13T15:59:34;5.65;;;1.63;;
23730;SDS011;12046;44.702;10.622;2022-09-13T16:02:01;4.05;;;1.90;;
23730;SDS011;12046;44.702;10.622;2022-09-13T16:04:39;4.38;;;1.55;;
23730;SDS011;12046;44.702;10.622;2022-09-13T16:07:06;3.17;;;1.60;;
23730;SDS011;12046;44.702;10.622;2022-09-13T16:09:33;6.07;;;1.48;;
23730;SDS011;12046;44.702;10.622;2022-09-13T16:11:59;5.40;;;2.00;;
23730;SDS011;12046;44.702;10.622;2022-09-13T16:14:25;6.38;;;1.50;;
23730;SDS011;12046;44.702;10.622;2022-09-13T16:19:51;6.18;;;1.40;;
23730;SDS011;12046;44.702;10.622;2022-09-13T16:22:25;5.47;;;1.65;;
23730;SDS011;12046;44.702;10.622;2022-09-13T16:24:57;4.68;;;1.58;;
23730;SDS011;12046;44.702;10.622;2022-09-13T16:27:27;7.05;;;1.85;;
23730;SDS011;12046;44.702;10.622;2022-09-13T16:29:54;4.32;;;1.58;;
23730;SDS011;12046;44.702;10.622;2022-09-13T16:32:21;2.00;;;1.40;;
23730;SDS011;12046;44.702;10.622;2022-09-13T16:34:53;3.45;;;1.52;;
23730;SDS011;12046;44.702;10.622;2022-09-13T16:37:28;3.90;;;1.63;;
23730;SDS011;12046;44.702;10.622;2022-09-13T16:39:55;5.13;;;1.60;;
23730;SDS011;12046;44.702;10.622;2022-09-13T16:42:26;4.55;;;1.42;;
23730;SDS011;12046;44.702;10.622;2022-09-13T16:44:54;2.88;;;2.10;;
23730;SDS011;12046;44.702;10.622;2022-09-13T16:47:22;4.25;;;1.52;;
23730;SDS011;12046;44.702;10.622;2022-09-13T16:49:48;2.85;;;1.20;;
23730;SDS011;12046;44.702;10.622;2022-09-13T16:52:18;3.78;;;1.85;;
23730;SDS011;12046;44.702;10.622;2022-09-13T16:54:45;6.63;;;3.05;;
23730;SDS011;12046;44.702;10.622;2022-09-13T16:57:15;4.45;;;1.90;;
23730;SDS011;12046;44.702;10.622;2022-09-13T16:59:41;4.57;;;1.73;;
23730;SDS011;12046;44.702;10.622;2022-09-13T17:02:09;4.90;;;2.40;;
23730;SDS011;12046;44.702;10.622;2022-09-13T17:04:36;4.60;;;2.17;;
23730;SDS011;12046;44.702;10.622;2022-09-13T17:07:02;3.50;;;1.73;;
23730;SDS011;12046;44.702;10.622;2022-09-13T17:09:56;4.70;;;2.03;;
23730;SDS011;12046;44.702;10.622;2022-09-13T17:14:57;5.97;;;1.95;;
23730;SDS011;12046;44.702;10.622;2022-09-13T17:25:05;3.50;;;1.60;;
23730;SDS011;12046;44.702;10.622;2022-09-13T17:27:32;5.18;;;1.85;;
23730;SDS011;12046;44.702;10.622;2022-09-13T17:36:30;4.50;;;1.63;;
23730;SDS011;12046;44.702;10.622;2022-09-13T17:38:57;4.10;;;1.80;;
23730;SDS011;12046;44.702;10.622;2022-09-13T17:43:54;5.55;;;1.95;;
23730;SDS011;12046;44.702;10.622;2022-09-13T17:48:52;11.85;;;2.20;;
23730;SDS011;12046;44.702;10.622;2022-09-13T17:54:35;7.90;;;2.05;;
23730;SDS011;12046;44.702;10.622;2022-09-13T18:07:39;11.35;;;3.08;;
23730;SDS011;12046;44.702;10.622;2022-09-13T18:10:05;10.02;;;2.70;;
23730;SDS011;12046;44.702;10.622;2022-09-13T18:12:32;4.28;;;2.78;;
23730;SDS011;12046;44.702;10.622;2022-09-13T18:17:35;3.55;;;2.45;;
23730;SDS011;12046;44.702;10.622;2022-09-13T18:23:04;4.97;;;2.22;;
23730;SDS011;12046;44.702;10.622;2022-09-13T18:25:30;7.68;;;2.10;;
23730;SDS011;12046;44.702;10.622;2022-09-13T18:33:44;6.47;;;2.75;;
23730;SDS011;12046;44.702;10.622;2022-09-13T18:36:36;7.38;;;2.80;;
23730;SDS011;12046;44.702;10.622;2022-09-13T18:53:05;4.50;;;1.80;;
23730;SDS011;12046;44.702;10.622;2022-09-13T18:55:33;4.90;;;2.50;;
23730;SDS011;12046;44.702;10.622;2022-09-13T18:58:05;4.35;;;2.25;;
23730;SDS011;12046;44.702;10.622;2022-09-13T19:00:30;5.30;;;2.50;;
23730;SDS011;12046;44.702;10.622;2022-09-13T19:02:57;9.82;;;2.08;;
23730;SDS011;12046;44.702;10.622;2022-09-13T19:05:26;4.35;;;2.30;;
23730;SDS011;12046;44.702;10.622;2022-09-13T19:07:52;4.85;;;2.25;;
23730;SDS011;12046;44.702;10.622;2022-09-13T19:10:20;6.45;;;2.70;;
23730;SDS011;12046;44.702;10.622;2022-09-13T19:12:46;5.40;;;2.60;;
23730;SDS011;12046;44.702;10.622;2022-09-13T19:15:12;6.85;;;2.85;;
23730;SDS011;12046;44.702;10.622;2022-09-13T19:17:41;3.85;;;3.10;;
23730;SDS011;12046;44.702;10.622;2022-09-13T19:20:07;4.72;;;2.38;;
23730;SDS011;12046;44.702;10.622;2022-09-13T19:22:34;11.68;;;3.53;;
23730;SDS011;12046;44.702;10.622;2022-09-13T19:25:00;7.93;;;2.53;;
23730;SDS011;12046;44.702;10.622;2022-09-13T19:27:26;6.53;;;2.95;;
23730;SDS011;12046;44.702;10.622;2022-09-13T19:29:51;7.38;;;2.90;;
23730;SDS011;12046;44.702;10.622;2022-09-13T19:32:18;5.85;;;2.70;;
23730;SDS011;12046;44.702;10.622;2022-09-13T19:34:44;13.45;;;3.20;;
23730;SDS011;12046;44.702;10.622;2022-09-13T19:37:10;7.22;;;3.42;;
23730;SDS011;12046;44.702;10.622;2022-09-13T19:39:39;8.00;;;2.60;;
23730;SDS011;12046;44.702;10.622;2022-09-13T19:42:06;4.20;;;2.88;;
23730;SDS011;12046;44.702;10.622;2022-09-13T19:44:35;9.57;;;3.03;;
23730;SDS011;12046;44.702;10.622;2022-09-13T19:47:01;5.72;;;3.05;;
23730;SDS011;12046;44.702;10.622;2022-09-13T19:49:28;6.90;;;3.00;;
23730;SDS011;12046;44.702;10.622;2022-09-13T19:51:54;11.20;;;3.20;;
23730;SDS011;12046;44.702;10.622;2022-09-13T19:54:20;5.68;;;2.88;;
23730;SDS011;12046;44.702;10.622;2022-09-13T19:56:46;5.43;;;3.17;;
23730;SDS011;12046;44.702;10.622;2022-09-13T19:59:15;10.77;;;3.38;;
23730;SDS011;12046;44.702;10.622;2022-09-13T20:01:44;5.50;;;3.22;;
23730;SDS011;12046;44.702;10.622;2022-09-13T20:04:12;8.82;;;3.42;;
23730;SDS011;12046;44.702;10.622;2022-09-13T20:06:44;9.52;;;3.65;;